Weather at Tovrea Castle Helipad

Public forecast

Using degrees Fahrenheit for public forecast. Weather courtesy of forecast.io.

Closest aviation weather report (METAR) to Tovrea Castle Helipad

Closest report is Phoenix Sky Harbor International Airport, 1.9 nm (3.4 km) WSW.

2024/05/20 02:51 (retrieved 1 hour ago)

KPHX 200251Z 25005KT 10SM CLR 33/M07 A2977 RMK AO2 SLP060 T03331067 55003

Closest aviation forecast (TAF) to Tovrea Castle Helipad

Forecast is more than 6 hours old.

Closest forecast is Davis Monthan Air Force Base, 94.5 nm (175.1 km) SE.

2024/05/19 19:41 (retrieved 8 hours ago)

TAF KDMA 191900Z 1919/2101 30012KT 9999 SKC QNH2986INS BECMG 2006/2007 14006KT 9999 FEW250 QNH2992INS BECMG 2017/2018 26010G20KT 9999 SCT150 QNH2990INS TX34/1922Z TN17/2012Z